sensor_id;sensor_type;location;lat;lon;timestamp;pressure;altitude;pressure_sealevel;temperature;humidity
59859;BME280;45734;53.648;9.566;2024-03-07T00:00:20;53574.44;;;-145.06;100.00
59859;BME280;45734;53.648;9.566;2024-03-07T00:05:21;53623.06;;;-145.06;100.00
59859;BME280;45734;53.648;9.566;2024-03-07T00:10:24;53623.06;;;-145.06;100.00
59859;BME280;45734;53.648;9.566;2024-03-07T00:15:25;53616.97;;;-145.06;100.00
59859;BME280;45734;53.648;9.566;2024-03-07T00:20:25;53657.47;;;-145.06;100.00
59859;BME280;45734;53.648;9.566;2024-03-07T00:25:25;53645.31;;;-145.06;100.00
59859;BME280;45734;53.648;9.566;2024-03-07T00:30:26;53643.31;;;-145.06;100.00
59859;BME280;45734;53.648;9.566;2024-03-07T00:35:29;53655.44;;;-145.06;100.00
59859;BME280;45734;53.648;9.566;2024-03-07T00:40:32;53655.44;;;-145.06;100.00
59859;BME280;45734;53.648;9.566;2024-03-07T00:45:32;53610.91;;;-145.06;100.00
59859;BME280;45734;53.648;9.566;2024-03-07T00:50:32;53639.25;;;-145.06;100.00
59859;BME280;45734;53.648;9.566;2024-03-07T00:55:33;53673.69;;;-145.06;100.00
59859;BME280;45734;53.648;9.566;2024-03-07T01:00:33;53693.94;;;-145.06;100.00
59859;BME280;45734;53.648;9.566;2024-03-07T01:05:33;53623.06;;;-145.06;100.00
59859;BME280;45734;53.648;9.566;2024-03-07T01:10:33;53621.03;;;-145.06;100.00
59859;BME280;45734;53.648;9.566;2024-03-07T01:15:34;53621.03;;;-145.06;100.00
59859;BME280;45734;53.648;9.566;2024-03-07T01:20:34;53590.66;;;-145.06;100.00
59859;BME280;45734;53.648;9.566;2024-03-07T01:25:35;53556.22;;;-145.06;100.00
59859;BME280;45734;53.648;9.566;2024-03-07T01:30:35;53515.72;;;-145.06;100.00
59859;BME280;45734;53.648;9.566;2024-03-07T01:35:36;53499.53;;;-145.06;100.00
59859;BME280;45734;53.648;9.566;2024-03-07T01:40:36;53471.19;;;-145.06;100.00
59859;BME280;45734;53.648;9.566;2024-03-07T01:45:38;53471.19;;;-145.06;100.00
59859;BME280;45734;53.648;9.566;2024-03-07T01:50:38;53457.00;;;-145.06;100.00
59859;BME280;45734;53.648;9.566;2024-03-07T01:55:38;53440.81;;;-145.06;100.00
59859;BME280;45734;53.648;9.566;2024-03-07T02:00:39;53467.13;;;-145.06;100.00
59859;BME280;45734;53.648;9.566;2024-03-07T02:05:40;53491.44;;;-145.06;100.00
59859;BME280;45734;53.648;9.566;2024-03-07T02:10:41;53428.66;;;-145.06;100.00
59859;BME280;45734;53.648;9.566;2024-03-07T02:15:42;53448.91;;;-145.06;100.00
59859;BME280;45734;53.648;9.566;2024-03-07T02:20:46;53430.69;;;-145.06;100.00
59859;BME280;45734;53.648;9.566;2024-03-07T02:25:46;53442.81;;;-145.06;100.00
59859;BME280;45734;53.648;9.566;2024-03-07T02:30:47;53426.63;;;-145.06;100.00
59859;BME280;45734;53.648;9.566;2024-03-07T02:35:47;53426.63;;;-145.06;100.00
59859;BME280;45734;53.648;9.566;2024-03-07T02:40:49;53414.47;;;-145.06;100.00
59859;BME280;45734;53.648;9.566;2024-03-07T02:45:49;53402.31;;;-145.06;100.00
59859;BME280;45734;53.648;9.566;2024-03-07T02:50:50;53386.13;;;-145.06;100.00
59859;BME280;45734;53.648;9.566;2024-03-07T02:55:50;53380.06;;;-145.06;100.00
59859;BME280;45734;53.648;9.566;2024-03-07T03:00:57;53373.97;;;-145.06;100.00
59859;BME280;45734;53.648;9.566;2024-03-07T03:05:59;53365.88;;;-145.06;100.00
59859;BME280;45734;53.648;9.566;2024-03-07T03:11:00;53361.81;;;-145.06;100.00
59859;BME280;45734;53.648;9.566;2024-03-07T03:16:00;53357.78;;;-145.06;100.00
59859;BME280;45734;53.648;9.566;2024-03-07T03:21:04;53333.47;;;-145.06;100.00
59859;BME280;45734;53.648;9.566;2024-03-07T03:26:05;53301.09;;;-145.06;100.00
59859;BME280;45734;53.648;9.566;2024-03-07T03:31:07;53333.47;;;-145.06;100.00
59859;BME280;45734;53.648;9.566;2024-03-07T03:36:08;53317.28;;;-145.06;100.00
59859;BME280;45734;53.648;9.566;2024-03-07T03:41:08;53305.13;;;-145.06;100.00
59859;BME280;45734;53.648;9.566;2024-03-07T03:46:11;53323.34;;;-145.06;100.00
59859;BME280;45734;53.648;9.566;2024-03-07T03:51:12;53311.22;;;-145.06;100.00
59859;BME280;45734;53.648;9.566;2024-03-07T03:56:13;53321.34;;;-145.06;100.00
59859;BME280;45734;53.648;9.566;2024-03-07T04:01:13;53295.00;;;-145.06;100.00
59859;BME280;45734;53.648;9.566;2024-03-07T04:06:14;53288.94;;;-145.06;100.00
59859;BME280;45734;53.648;9.566;2024-03-07T04:11:15;53278.81;;;-145.06;100.00
59859;BME280;45734;53.648;9.566;2024-03-07T04:16:15;53325.38;;;-145.06;100.00
59859;BME280;45734;53.648;9.566;2024-03-07T04:21:17;53303.09;;;-145.06;100.00
59859;BME280;45734;53.648;9.566;2024-03-07T04:26:17;53333.47;;;-145.06;100.00
59859;BME280;45734;53.648;9.566;2024-03-07T04:31:17;53357.78;;;-145.06;100.00
59859;BME280;45734;53.648;9.566;2024-03-07T04:36:18;53321.34;;;-145.06;100.00
59859;BME280;45734;53.648;9.566;2024-03-07T04:41:18;53388.16;;;-145.06;100.00
59859;BME280;45734;53.648;9.566;2024-03-07T04:46:18;53373.97;;;-145.06;100.00
59859;BME280;45734;53.648;9.566;2024-03-07T04:51:19;53408.41;;;-145.06;100.00
59859;BME280;45734;53.648;9.566;2024-03-07T04:56:19;53428.66;;;-145.06;100.00
59859;BME280;45734;53.648;9.566;2024-03-07T05:01:22;53424.59;;;-145.06;100.00
59859;BME280;45734;53.648;9.566;2024-03-07T05:06:22;53446.88;;;-145.06;100.00
59859;BME280;45734;53.648;9.566;2024-03-07T05:11:23;53446.88;;;-145.06;100.00
59859;BME280;45734;53.648;9.566;2024-03-07T05:16:24;53444.84;;;-145.06;100.00
59859;BME280;45734;53.648;9.566;2024-03-07T05:21:27;53467.13;;;-145.06;100.00
59859;BME280;45734;53.648;9.566;2024-03-07T05:26:35;53481.31;;;-145.06;100.00
59859;BME280;45734;53.648;9.566;2024-03-07T05:31:40;53481.31;;;-145.06;100.00
59859;BME280;45734;53.648;9.566;2024-03-07T05:36:49;53491.44;;;-145.06;100.00
59859;BME280;45734;53.648;9.566;2024-03-07T05:41:50;53511.69;;;-145.06;100.00
59859;BME280;45734;53.648;9.566;2024-03-07T05:46:50;53542.06;;;-145.06;100.00
59859;BME280;45734;53.648;9.566;2024-03-07T05:51:51;53533.94;;;-145.06;100.00
59859;BME280;45734;53.648;9.566;2024-03-07T05:56:51;53523.81;;;-145.06;100.00
59859;BME280;45734;53.648;9.566;2024-03-07T06:01:51;53493.44;;;-145.06;100.00
59859;BME280;45734;53.648;9.566;2024-03-07T06:06:51;53501.56;;;-145.06;100.00
59859;BME280;45734;53.648;9.566;2024-03-07T06:11:52;53533.94;;;-145.06;100.00
59859;BME280;45734;53.648;9.566;2024-03-07T06:16:52;53489.41;;;-145.06;100.00
59859;BME280;45734;53.648;9.566;2024-03-07T06:21:53;53487.38;;;-145.06;100.00
59859;BME280;45734;53.648;9.566;2024-03-07T06:26:54;53491.44;;;-145.06;100.00
59859;BME280;45734;53.648;9.566;2024-03-07T06:32:00;53493.44;;;-145.06;100.00
59859;BME280;45734;53.648;9.566;2024-03-07T06:37:00;53461.06;;;-145.06;100.00
59859;BME280;45734;53.648;9.566;2024-03-07T06:42:03;53477.25;;;-145.06;100.00
59859;BME280;45734;53.648;9.566;2024-03-07T06:47:03;53471.19;;;-145.06;100.00
59859;BME280;45734;53.648;9.566;2024-03-07T06:52:05;53461.06;;;-145.06;100.00
59859;BME280;45734;53.648;9.566;2024-03-07T06:57:06;53450.94;;;-145.06;100.00
59859;BME280;45734;53.648;9.566;2024-03-07T07:02:06;53450.94;;;-145.06;100.00
59859;BME280;45734;53.648;9.566;2024-03-07T07:07:08;53469.16;;;-145.06;100.00
59859;BME280;45734;53.648;9.566;2024-03-07T07:12:13;53454.97;;;-145.06;100.00
59859;BME280;45734;53.648;9.566;2024-03-07T07:17:14;53459.03;;;-145.06;100.00
59859;BME280;45734;53.648;9.566;2024-03-07T07:22:15;53454.97;;;-145.06;100.00
59859;BME280;45734;53.648;9.566;2024-03-07T07:27:15;53452.94;;;-145.06;100.00
59859;BME280;45734;53.648;9.566;2024-03-07T07:32:15;53450.94;;;-145.06;100.00
59859;BME280;45734;53.648;9.566;2024-03-07T07:37:16;53406.38;;;-145.06;100.00
59859;BME280;45734;53.648;9.566;2024-03-07T07:42:17;53422.56;;;-145.06;100.00
59859;BME280;45734;53.648;9.566;2024-03-07T07:47:17;53424.59;;;-145.06;100.00
59859;BME280;45734;53.648;9.566;2024-03-07T07:52:18;53428.66;;;-145.06;100.00
59859;BME280;45734;53.648;9.566;2024-03-07T07:57:18;53422.56;;;-145.06;100.00
59859;BME280;45734;53.648;9.566;2024-03-07T08:02:18;53430.69;;;-145.06;100.00
59859;BME280;45734;53.648;9.566;2024-03-07T08:07:19;53400.31;;;-145.06;100.00
59859;BME280;45734;53.648;9.566;2024-03-07T08:12:19;53398.28;;;-145.06;100.00
59859;BME280;45734;53.648;9.566;2024-03-07T08:17:19;53434.72;;;-145.06;100.00
59859;BME280;45734;53.648;9.566;2024-03-07T08:22:20;53434.72;;;-145.06;100.00
59859;BME280;45734;53.648;9.566;2024-03-07T08:27:20;53386.13;;;-145.06;100.00
59859;BME280;45734;53.648;9.566;2024-03-07T08:32:20;53398.28;;;-145.06;100.00
59859;BME280;45734;53.648;9.566;2024-03-07T08:37:20;53376.00;;;-145.06;100.00
59859;BME280;45734;53.648;9.566;2024-03-07T08:42:21;53351.72;;;-145.06;100.00
59859;BME280;45734;53.648;9.566;2024-03-07T08:47:21;53394.22;;;-145.06;99.89
59859;BME280;45734;53.648;9.566;2024-03-07T08:52:22;53355.75;;;-145.06;99.98
59859;BME280;45734;53.648;9.566;2024-03-07T08:57:22;53276.78;;;-145.06;96.37
59859;BME280;45734;53.648;9.566;2024-03-07T09:02:22;53371.97;;;-145.06;95.71
59859;BME280;45734;53.648;9.566;2024-03-07T09:07:23;53384.09;;;-145.06;97.99
59859;BME280;45734;53.648;9.566;2024-03-07T09:12:23;53373.97;;;-145.06;97.32
59859;BME280;45734;53.648;9.566;2024-03-07T09:17:27;53256.53;;;-145.06;96.68
59859;BME280;45734;53.648;9.566;2024-03-07T09:22:27;53102.66;;;-145.06;92.32
59859;BME280;45734;53.648;9.566;2024-03-07T09:27:29;53173.53;;;-145.06;84.93
59859;BME280;45734;53.648;9.566;2024-03-07T09:32:29;53280.84;;;-145.06;87.86
59859;BME280;45734;53.648;9.566;2024-03-07T09:37:33;53185.66;;;-145.06;86.42
59859;BME280;45734;53.648;9.566;2024-03-07T09:42:33;53315.25;;;-145.06;88.25
59859;BME280;45734;53.648;9.566;2024-03-07T09:47:35;53286.91;;;-145.06;91.70
59859;BME280;45734;53.648;9.566;2024-03-07T09:52:35;53382.06;;;-145.06;90.69
59859;BME280;45734;53.648;9.566;2024-03-07T09:57:36;53315.25;;;-145.06;93.50
59859;BME280;45734;53.648;9.566;2024-03-07T10:02:39;53371.97;;;-145.06;90.01
59859;BME280;45734;53.648;9.566;2024-03-07T10:07:41;53386.13;;;-145.06;93.83
59859;BME280;45734;53.648;9.566;2024-03-07T10:12:42;53333.47;;;-145.06;92.55
59859;BME280;45734;53.648;9.566;2024-03-07T10:17:42;53288.94;;;-145.06;89.60
59859;BME280;45734;53.648;9.566;2024-03-07T10:22:43;53321.34;;;-145.06;89.28
59859;BME280;45734;53.648;9.566;2024-03-07T10:27:45;53349.69;;;-145.06;87.78
59859;BME280;45734;53.648;9.566;2024-03-07T10:32:54;53321.34;;;-145.06;87.16
59859;BME280;45734;53.648;9.566;2024-03-07T10:37:56;53363.84;;;-145.06;89.25
59859;BME280;45734;53.648;9.566;2024-03-07T10:42:57;53365.88;;;-145.06;89.71
59859;BME280;45734;53.648;9.566;2024-03-07T10:47:58;53416.50;;;-145.06;91.10
59859;BME280;45734;53.648;9.566;2024-03-07T10:53:24;53440.81;;;-145.06;91.51
59859;BME280;45734;53.648;9.566;2024-03-07T10:58:58;53452.94;;;-145.06;89.68
59859;BME280;45734;53.648;9.566;2024-03-07T11:04:02;53426.63;;;-145.06;94.45
59859;BME280;45734;53.648;9.566;2024-03-07T11:09:08;53438.78;;;-145.06;93.14
59859;BME280;45734;53.648;9.566;2024-03-07T11:14:11;53408.41;;;-145.06;94.02
59859;BME280;45734;53.648;9.566;2024-03-07T11:24:27;53402.31;;;-145.06;100.00
59859;BME280;45734;53.648;9.566;2024-03-07T11:29:48;53382.06;;;-145.06;100.00
59859;BME280;45734;53.648;9.566;2024-03-07T11:34:53;53406.38;;;-145.06;100.00
59859;BME280;45734;53.648;9.566;2024-03-07T11:39:54;53410.44;;;-145.06;100.00
59859;BME280;45734;53.648;9.566;2024-03-07T11:44:57;53373.97;;;-145.06;100.00
59859;BME280;45734;53.648;9.566;2024-03-07T11:49:57;53373.97;;;-145.06;99.73
59859;BME280;45734;53.648;9.566;2024-03-07T11:54:58;53410.44;;;-145.06;95.21
59859;BME280;45734;53.648;9.566;2024-03-07T12:00:04;53369.94;;;-145.06;96.15
59859;BME280;45734;53.648;9.566;2024-03-07T12:05:11;53339.56;;;-145.06;99.63
59859;BME280;45734;53.648;9.566;2024-03-07T12:10:15;53321.34;;;-145.06;99.94
59859;BME280;45734;53.648;9.566;2024-03-07T12:15:16;53329.44;;;-145.06;98.89
59859;BME280;45734;53.648;9.566;2024-03-07T12:20:19;53309.19;;;-145.06;99.86
59859;BME280;45734;53.648;9.566;2024-03-07T12:25:27;53288.94;;;-145.06;97.39
59859;BME280;45734;53.648;9.566;2024-03-07T12:30:30;53305.13;;;-145.06;98.64
59859;BME280;45734;53.648;9.566;2024-03-07T12:35:33;53278.81;;;-145.06;96.65
59859;BME280;45734;53.648;9.566;2024-03-07T12:40:33;53254.50;;;-145.06;96.62
59859;BME280;45734;53.648;9.566;2024-03-07T12:45:34;53266.66;;;-145.06;99.58
59859;BME280;45734;53.648;9.566;2024-03-07T12:50:34;53264.63;;;-145.06;97.45
59859;BME280;45734;53.648;9.566;2024-03-07T12:55:35;53266.66;;;-145.06;96.03
59859;BME280;45734;53.648;9.566;2024-03-07T13:00:36;53228.19;;;-145.06;97.26
59859;BME280;45734;53.648;9.566;2024-03-07T13:05:37;53248.44;;;-145.06;97.36
59859;BME280;45734;53.648;9.566;2024-03-07T13:10:44;53236.28;;;-145.06;95.72
59859;BME280;45734;53.648;9.566;2024-03-07T13:15:45;53212.00;;;-145.06;95.33
59859;BME280;45734;53.648;9.566;2024-03-07T13:20:47;53220.09;;;-145.06;96.20
59859;BME280;45734;53.648;9.566;2024-03-07T13:25:48;53224.13;;;-145.06;92.99
59859;BME280;45734;53.648;9.566;2024-03-07T13:30:48;53191.75;;;-145.06;94.74
59859;BME280;45734;53.648;9.566;2024-03-07T13:35:49;53197.81;;;-145.06;94.58
59859;BME280;45734;53.648;9.566;2024-03-07T13:40:50;53187.69;;;-145.06;95.01
59859;BME280;45734;53.648;9.566;2024-03-07T13:45:50;53201.88;;;-145.06;93.92
59859;BME280;45734;53.648;9.566;2024-03-07T13:50:51;53195.78;;;-145.06;90.46
59859;BME280;45734;53.648;9.566;2024-03-07T14:01:45;53230.22;;;-145.06;92.77
59859;BME280;45734;53.648;9.566;2024-03-07T14:18:22;53230.22;;;-145.06;93.57
59859;BME280;45734;53.648;9.566;2024-03-07T14:34:10;53183.66;;;-145.06;97.78
59859;BME280;45734;53.648;9.566;2024-03-07T14:39:14;53224.13;;;-145.06;92.72
59859;BME280;45734;53.648;9.566;2024-03-07T14:44:16;53258.56;;;-145.06;91.05
59859;BME280;45734;53.648;9.566;2024-03-07T14:49:17;53234.25;;;-145.06;89.96
59859;BME280;45734;53.648;9.566;2024-03-07T14:54:18;53232.25;;;-145.06;89.43
59859;BME280;45734;53.648;9.566;2024-03-07T14:59:18;53272.75;;;-145.06;89.69
59859;BME280;45734;53.648;9.566;2024-03-07T15:04:19;53260.59;;;-145.06;90.35
59859;BME280;45734;53.648;9.566;2024-03-07T15:09:21;53256.53;;;-145.06;88.21
59859;BME280;45734;53.648;9.566;2024-03-07T15:14:22;53244.38;;;-145.06;90.41
59859;BME280;45734;53.648;9.566;2024-03-07T15:19:23;53212.00;;;-145.06;89.60
59859;BME280;45734;53.648;9.566;2024-03-07T15:24:23;53212.00;;;-145.06;89.83
59859;BME280;45734;53.648;9.566;2024-03-07T15:29:24;53262.63;;;-145.06;84.55
59859;BME280;45734;53.648;9.566;2024-03-07T15:34:24;53276.78;;;-145.06;84.51
59859;BME280;45734;53.648;9.566;2024-03-07T15:39:27;53260.59;;;-145.06;83.61
59859;BME280;45734;53.648;9.566;2024-03-07T15:44:30;53272.75;;;-145.06;85.27
59859;BME280;45734;53.648;9.566;2024-03-07T15:49:30;53301.09;;;-145.06;84.46
59859;BME280;45734;53.648;9.566;2024-03-07T15:54:30;53303.09;;;-145.06;83.70
59859;BME280;45734;53.648;9.566;2024-03-07T15:59:31;53240.34;;;-145.06;87.81
59859;BME280;45734;53.648;9.566;2024-03-07T16:04:31;53258.56;;;-145.06;90.12
59859;BME280;45734;53.648;9.566;2024-03-07T16:09:31;53228.19;;;-145.06;89.58
59859;BME280;45734;53.648;9.566;2024-03-07T16:14:31;53248.44;;;-145.06;89.20
59859;BME280;45734;53.648;9.566;2024-03-07T16:19:33;53230.22;;;-145.06;89.90
59859;BME280;45734;53.648;9.566;2024-03-07T16:24:33;53230.22;;;-145.06;96.09
59859;BME280;45734;53.648;9.566;2024-03-07T16:29:37;53244.38;;;-145.06;100.00
59859;BME280;45734;53.648;9.566;2024-03-07T16:34:38;53232.25;;;-145.06;100.00
59859;BME280;45734;53.648;9.566;2024-03-07T16:39:38;53256.53;;;-145.06;100.00
59859;BME280;45734;53.648;9.566;2024-03-07T16:44:38;53244.38;;;-145.06;100.00
59859;BME280;45734;53.648;9.566;2024-03-07T16:49:39;53292.97;;;-145.06;100.00
59859;BME280;45734;53.648;9.566;2024-03-07T16:54:39;53290.97;;;-145.06;100.00
59859;BME280;45734;53.648;9.566;2024-03-07T16:59:40;53284.88;;;-145.06;100.00
59859;BME280;45734;53.648;9.566;2024-03-07T17:04:40;53319.31;;;-145.06;100.00
59859;BME280;45734;53.648;9.566;2024-03-07T17:09:40;53286.91;;;-145.06;100.00
59859;BME280;45734;53.648;9.566;2024-03-07T17:14:41;53284.88;;;-145.06;100.00
59859;BME280;45734;53.648;9.566;2024-03-07T17:19:43;53327.41;;;-145.06;100.00
59859;BME280;45734;53.648;9.566;2024-03-07T17:24:44;53345.63;;;-145.06;100.00
59859;BME280;45734;53.648;9.566;2024-03-07T17:29:44;53376.00;;;-145.06;100.00
59859;BME280;45734;53.648;9.566;2024-03-07T17:34:46;53347.66;;;-145.06;100.00
59859;BME280;45734;53.648;9.566;2024-03-07T17:39:47;53351.72;;;-145.06;100.00
59859;BME280;45734;53.648;9.566;2024-03-07T17:44:53;53353.72;;;-145.06;100.00
59859;BME280;45734;53.648;9.566;2024-03-07T17:49:55;53392.19;;;-145.06;100.00
59859;BME280;45734;53.648;9.566;2024-03-07T17:54:55;53382.06;;;-145.06;100.00
59859;BME280;45734;53.648;9.566;2024-03-07T17:59:55;53422.56;;;-145.06;100.00
59859;BME280;45734;53.648;9.566;2024-03-07T18:04:56;53402.31;;;-145.06;100.00
59859;BME280;45734;53.648;9.566;2024-03-07T18:09:57;53386.13;;;-145.06;100.00
59859;BME280;45734;53.648;9.566;2024-03-07T18:14:58;53359.81;;;-145.06;100.00
59859;BME280;45734;53.648;9.566;2024-03-07T18:20:00;53329.44;;;-145.06;100.00
59859;BME280;45734;53.648;9.566;2024-03-07T18:25:04;53369.94;;;-145.06;100.00
59859;BME280;45734;53.648;9.566;2024-03-07T18:30:05;53365.88;;;-145.06;100.00
59859;BME280;45734;53.648;9.566;2024-03-07T18:35:11;53388.16;;;-145.06;100.00
59859;BME280;45734;53.648;9.566;2024-03-07T18:40:12;53386.13;;;-145.06;100.00
59859;BME280;45734;53.648;9.566;2024-03-07T18:45:22;53382.06;;;-145.06;100.00
59859;BME280;45734;53.648;9.566;2024-03-07T18:50:24;53392.19;;;-145.06;100.00
59859;BME280;45734;53.648;9.566;2024-03-07T18:55:26;53412.44;;;-145.06;100.00
59859;BME280;45734;53.648;9.566;2024-03-07T19:00:31;53414.47;;;-145.06;100.00
59859;BME280;45734;53.648;9.566;2024-03-07T19:05:33;53434.72;;;-145.06;100.00
59859;BME280;45734;53.648;9.566;2024-03-07T19:10:33;53394.22;;;-145.06;100.00
59859;BME280;45734;53.648;9.566;2024-03-07T19:15:33;53380.06;;;-145.06;100.00
59859;BME280;45734;53.648;9.566;2024-03-07T19:20:34;53343.59;;;-145.06;100.00
59859;BME280;45734;53.648;9.566;2024-03-07T19:25:37;53371.97;;;-145.06;100.00
59859;BME280;45734;53.648;9.566;2024-03-07T19:30:47;53400.31;;;-145.06;100.00
59859;BME280;45734;53.648;9.566;2024-03-07T19:35:51;53345.63;;;-145.06;100.00
59859;BME280;45734;53.648;9.566;2024-03-07T19:40:55;53347.66;;;-145.06;100.00
59859;BME280;45734;53.648;9.566;2024-03-07T19:45:55;53361.81;;;-145.06;100.00
59859;BME280;45734;53.648;9.566;2024-03-07T19:50:55;53376.00;;;-145.06;100.00
59859;BME280;45734;53.648;9.566;2024-03-07T19:55:57;53367.91;;;-145.06;100.00
59859;BME280;45734;53.648;9.566;2024-03-07T20:00:59;53347.66;;;-145.06;100.00
59859;BME280;45734;53.648;9.566;2024-03-07T20:06:03;53331.47;;;-145.06;100.00
59859;BME280;45734;53.648;9.566;2024-03-07T20:11:03;53327.41;;;-145.06;100.00
59859;BME280;45734;53.648;9.566;2024-03-07T20:16:06;53290.97;;;-145.06;100.00
59859;BME280;45734;53.648;9.566;2024-03-07T20:21:07;53349.69;;;-145.06;100.00
59859;BME280;45734;53.648;9.566;2024-03-07T20:26:09;53337.53;;;-145.06;100.00
59859;BME280;45734;53.648;9.566;2024-03-07T20:31:09;53341.59;;;-145.06;100.00
59859;BME280;45734;53.648;9.566;2024-03-07T20:36:09;53365.88;;;-145.06;100.00
59859;BME280;45734;53.648;9.566;2024-03-07T20:41:09;53396.25;;;-145.06;100.00
59859;BME280;45734;53.648;9.566;2024-03-07T20:46:11;53361.81;;;-145.06;100.00
59859;BME280;45734;53.648;9.566;2024-03-07T20:51:11;53382.06;;;-145.06;100.00
59859;BME280;45734;53.648;9.566;2024-03-07T20:56:12;53390.19;;;-145.06;100.00
59859;BME280;45734;53.648;9.566;2024-03-07T21:01:12;53402.31;;;-145.06;100.00
59859;BME280;45734;53.648;9.566;2024-03-07T21:06:12;53365.88;;;-145.06;100.00
59859;BME280;45734;53.648;9.566;2024-03-07T21:11:12;53402.31;;;-145.06;100.00
59859;BME280;45734;53.648;9.566;2024-03-07T21:16:13;53365.88;;;-145.06;100.00
59859;BME280;45734;53.648;9.566;2024-03-07T21:21:13;53345.63;;;-145.06;100.00
59859;BME280;45734;53.648;9.566;2024-03-07T21:26:14;53359.81;;;-145.06;100.00
59859;BME280;45734;53.648;9.566;2024-03-07T21:31:15;53355.75;;;-145.06;100.00
59859;BME280;45734;53.648;9.566;2024-03-07T21:36:19;53361.81;;;-145.06;100.00
59859;BME280;45734;53.648;9.566;2024-03-07T21:41:19;53337.53;;;-145.06;100.00
59859;BME280;45734;53.648;9.566;2024-03-07T21:46:20;53349.69;;;-145.06;100.00
59859;BME280;45734;53.648;9.566;2024-03-07T21:51:20;53380.06;;;-145.06;100.00
59859;BME280;45734;53.648;9.566;2024-03-07T21:56:29;53369.94;;;-145.06;100.00
59859;BME280;45734;53.648;9.566;2024-03-07T22:01:36;53355.75;;;-145.06;100.00
59859;BME280;45734;53.648;9.566;2024-03-07T22:06:42;53396.25;;;-145.06;100.00
59859;BME280;45734;53.648;9.566;2024-03-07T22:11:45;53410.44;;;-145.06;100.00
59859;BME280;45734;53.648;9.566;2024-03-07T22:21:50;53454.97;;;-145.06;100.00
59859;BME280;45734;53.648;9.566;2024-03-07T22:26:50;53499.53;;;-145.06;100.00
59859;BME280;45734;53.648;9.566;2024-03-07T22:31:51;53511.69;;;-145.06;100.00
59859;BME280;45734;53.648;9.566;2024-03-07T22:36:51;53513.69;;;-145.06;100.00
59859;BME280;45734;53.648;9.566;2024-03-07T22:41:52;53568.38;;;-145.06;100.00
59859;BME280;45734;53.648;9.566;2024-03-07T22:46:53;53548.13;;;-145.06;100.00
59859;BME280;45734;53.648;9.566;2024-03-07T22:51:53;53592.69;;;-145.06;100.00
59859;BME280;45734;53.648;9.566;2024-03-07T22:56:55;53612.94;;;-145.06;100.00
59859;BME280;45734;53.648;9.566;2024-03-07T23:01:55;53604.81;;;-145.06;100.00
59859;BME280;45734;53.648;9.566;2024-03-07T23:06:57;53608.88;;;-145.06;100.00
59859;BME280;45734;53.648;9.566;2024-03-07T23:11:57;53600.78;;;-145.06;100.00
59859;BME280;45734;53.648;9.566;2024-03-07T23:16:58;53612.94;;;-145.06;100.00
59859;BME280;45734;53.648;9.566;2024-03-07T23:21:58;53637.22;;;-145.06;100.00
59859;BME280;45734;53.648;9.566;2024-03-07T23:26:58;53663.56;;;-145.06;100.00
59859;BME280;45734;53.648;9.566;2024-03-07T23:31:59;53673.69;;;-145.06;100.00
59859;BME280;45734;53.648;9.566;2024-03-07T23:36:59;53667.59;;;-145.06;100.00
59859;BME280;45734;53.648;9.566;2024-03-07T23:41:59;53681.78;;;-145.06;100.00
59859;BME280;45734;53.648;9.566;2024-03-07T23:47:01;53681.78;;;-145.06;100.00
59859;BME280;45734;53.648;9.566;2024-03-07T23:52:01;53693.94;;;-145.06;100.00
59859;BME280;45734;53.648;9.566;2024-03-07T23:57:01;53704.06;;;-145.06;100.00
